sensor_id;sensor_type;location;lat;lon;timestamp;temperature;humidity
23783;DHT22;12071;50.850;4.446;2022-07-18T00:02:19;20.00;1.00
23783;DHT22;12071;50.850;4.446;2022-07-18T00:04:45;20.10;1.00
23783;DHT22;12071;50.850;4.446;2022-07-18T00:07:11;20.20;99.90
23783;DHT22;12071;50.850;4.446;2022-07-18T00:09:38;20.20;99.90
23783;DHT22;12071;50.850;4.446;2022-07-18T00:12:05;20.20;99.90
23783;DHT22;12071;50.850;4.446;2022-07-18T00:14:31;20.10;99.90
23783;DHT22;12071;50.850;4.446;2022-07-18T00:16:57;19.90;1.00
23783;DHT22;12071;50.850;4.446;2022-07-18T00:19:25;19.80;99.90
23783;DHT22;12071;50.850;4.446;2022-07-18T00:21:50;19.70;99.90
23783;DHT22;12071;50.850;4.446;2022-07-18T00:24:16;19.60;99.90
23783;DHT22;12071;50.850;4.446;2022-07-18T00:26:41;19.60;1.00
23783;DHT22;12071;50.850;4.446;2022-07-18T00:29:07;19.60;1.00
23783;DHT22;12071;50.850;4.446;2022-07-18T00:31:33;19.70;99.90
23783;DHT22;12071;50.850;4.446;2022-07-18T00:33:59;19.80;99.90
23783;DHT22;12071;50.850;4.446;2022-07-18T00:36:25;19.80;99.90
23783;DHT22;12071;50.850;4.446;2022-07-18T00:38:51;19.70;1.00
23783;DHT22;12071;50.850;4.446;2022-07-18T00:41:16;19.70;1.00
23783;DHT22;12071;50.850;4.446;2022-07-18T00:43:42;19.60;4.30
23783;DHT22;12071;50.850;4.446;2022-07-18T00:46:08;19.40;99.90
23783;DHT22;12071;50.850;4.446;2022-07-18T00:48:39;19.50;99.90
23783;DHT22;12071;50.850;4.446;2022-07-18T00:51:05;19.60;99.90
23783;DHT22;12071;50.850;4.446;2022-07-18T00:53:31;19.40;99.90
23783;DHT22;12071;50.850;4.446;2022-07-18T00:55:57;19.30;99.90
23783;DHT22;12071;50.850;4.446;2022-07-18T00:58:22;19.30;1.00
23783;DHT22;12071;50.850;4.446;2022-07-18T01:00:48;19.40;1.00
23783;DHT22;12071;50.850;4.446;2022-07-18T01:03:32;19.40;1.00
23783;DHT22;12071;50.850;4.446;2022-07-18T01:05:58;19.40;99.90
23783;DHT22;12071;50.850;4.446;2022-07-18T01:08:24;19.40;99.90
23783;DHT22;12071;50.850;4.446;2022-07-18T01:10:49;19.10;1.00
23783;DHT22;12071;50.850;4.446;2022-07-18T01:13:17;19.00;1.00
23783;DHT22;12071;50.850;4.446;2022-07-18T01:15:43;18.70;99.90
23783;DHT22;12071;50.850;4.446;2022-07-18T01:18:08;18.70;99.90
23783;DHT22;12071;50.850;4.446;2022-07-18T01:20:35;18.80;99.90
23783;DHT22;12071;50.850;4.446;2022-07-18T01:23:00;19.10;99.90
23783;DHT22;12071;50.850;4.446;2022-07-18T01:25:27;18.90;99.90
23783;DHT22;12071;50.850;4.446;2022-07-18T01:27:53;18.80;99.90
23783;DHT22;12071;50.850;4.446;2022-07-18T01:30:19;18.90;99.90
23783;DHT22;12071;50.850;4.446;2022-07-18T01:32:45;18.90;99.90
23783;DHT22;12071;50.850;4.446;2022-07-18T01:35:11;18.90;99.90
23783;DHT22;12071;50.850;4.446;2022-07-18T01:37:37;18.70;1.00
23783;DHT22;12071;50.850;4.446;2022-07-18T01:40:10;18.70;1.00
23783;DHT22;12071;50.850;4.446;2022-07-18T01:42:36;18.70;1.00
23783;DHT22;12071;50.850;4.446;2022-07-18T01:45:02;18.80;1.00
23783;DHT22;12071;50.850;4.446;2022-07-18T01:47:27;18.70;1.00
23783;DHT22;12071;50.850;4.446;2022-07-18T01:49:53;18.80;1.00
23783;DHT22;12071;50.850;4.446;2022-07-18T01:52:19;18.60;55.50
23783;DHT22;12071;50.850;4.446;2022-07-18T01:54:44;18.50;99.90
23783;DHT22;12071;50.850;4.446;2022-07-18T01:57:10;18.40;99.90
23783;DHT22;12071;50.850;4.446;2022-07-18T01:59:36;18.40;99.90
23783;DHT22;12071;50.850;4.446;2022-07-18T02:02:05;18.50;99.90
23783;DHT22;12071;50.850;4.446;2022-07-18T02:04:31;18.30;99.90
23783;DHT22;12071;50.850;4.446;2022-07-18T02:07:15;18.40;99.90
23783;DHT22;12071;50.850;4.446;2022-07-18T02:09:41;18.40;99.90
23783;DHT22;12071;50.850;4.446;2022-07-18T02:12:07;18.00;1.00
23783;DHT22;12071;50.850;4.446;2022-07-18T02:14:32;18.10;1.00
23783;DHT22;12071;50.850;4.446;2022-07-18T02:16:58;18.10;1.00
23783;DHT22;12071;50.850;4.446;2022-07-18T02:19:23;18.20;1.00
23783;DHT22;12071;50.850;4.446;2022-07-18T02:21:49;18.20;1.00
23783;DHT22;12071;50.850;4.446;2022-07-18T02:24:15;18.10;1.00
23783;DHT22;12071;50.850;4.446;2022-07-18T02:26:40;18.00;21.90
23783;DHT22;12071;50.850;4.446;2022-07-18T02:29:06;18.00;47.60
23783;DHT22;12071;50.850;4.446;2022-07-18T02:31:31;18.10;31.20
23783;DHT22;12071;50.850;4.446;2022-07-18T02:33:57;18.20;1.00
23783;DHT22;12071;50.850;4.446;2022-07-18T02:36:23;18.10;1.00
23783;DHT22;12071;50.850;4.446;2022-07-18T02:38:48;18.10;26.10
23783;DHT22;12071;50.850;4.446;2022-07-18T02:41:14;17.90;99.90
23783;DHT22;12071;50.850;4.446;2022-07-18T02:43:40;17.90;99.90
23783;DHT22;12071;50.850;4.446;2022-07-18T02:46:05;18.00;99.90
23783;DHT22;12071;50.850;4.446;2022-07-18T02:48:31;18.00;99.90
23783;DHT22;12071;50.850;4.446;2022-07-18T02:50:56;17.80;99.90
23783;DHT22;12071;50.850;4.446;2022-07-18T02:53:22;17.90;99.90
23783;DHT22;12071;50.850;4.446;2022-07-18T02:55:49;17.80;99.90
23783;DHT22;12071;50.850;4.446;2022-07-18T02:58:16;17.80;99.90
23783;DHT22;12071;50.850;4.446;2022-07-18T03:00:42;17.80;99.90
23783;DHT22;12071;50.850;4.446;2022-07-18T03:03:08;17.90;99.90
23783;DHT22;12071;50.850;4.446;2022-07-18T03:05:33;17.80;99.90
23783;DHT22;12071;50.850;4.446;2022-07-18T03:07:59;17.90;99.90
23783;DHT22;12071;50.850;4.446;2022-07-18T03:10:25;17.70;99.90
23783;DHT22;12071;50.850;4.446;2022-07-18T03:12:50;17.70;99.90
23783;DHT22;12071;50.850;4.446;2022-07-18T03:15:16;17.70;99.90
23783;DHT22;12071;50.850;4.446;2022-07-18T03:17:42;17.60;99.90
23783;DHT22;12071;50.850;4.446;2022-07-18T03:20:08;17.50;99.90
23783;DHT22;12071;50.850;4.446;2022-07-18T03:22:33;17.50;99.90
23783;DHT22;12071;50.850;4.446;2022-07-18T03:24:59;17.30;99.90
23783;DHT22;12071;50.850;4.446;2022-07-18T03:27:25;17.40;99.90
23783;DHT22;12071;50.850;4.446;2022-07-18T03:29:50;17.60;99.90
23783;DHT22;12071;50.850;4.446;2022-07-18T03:32:16;17.80;99.90
23783;DHT22;12071;50.850;4.446;2022-07-18T03:34:42;17.70;99.90
23783;DHT22;12071;50.850;4.446;2022-07-18T03:37:07;17.80;99.90
23783;DHT22;12071;50.850;4.446;2022-07-18T03:39:33;17.60;99.90
23783;DHT22;12071;50.850;4.446;2022-07-18T03:41:58;17.40;99.90
23783;DHT22;12071;50.850;4.446;2022-07-18T03:44:24;17.40;99.90
23783;DHT22;12071;50.850;4.446;2022-07-18T03:46:50;17.50;99.90
23783;DHT22;12071;50.850;4.446;2022-07-18T03:49:17;17.30;99.90
23783;DHT22;12071;50.850;4.446;2022-07-18T03:51:43;17.40;99.90
23783;DHT22;12071;50.850;4.446;2022-07-18T03:54:08;17.40;99.90
23783;DHT22;12071;50.850;4.446;2022-07-18T03:56:36;17.50;99.90
23783;DHT22;12071;50.850;4.446;2022-07-18T03:59:02;17.70;99.90
23783;DHT22;12071;50.850;4.446;2022-07-18T04:01:27;17.70;88.80
23783;DHT22;12071;50.850;4.446;2022-07-18T04:03:53;17.70;47.00
23783;DHT22;12071;50.850;4.446;2022-07-18T04:06:19;17.70;19.50
23783;DHT22;12071;50.850;4.446;2022-07-18T04:08:44;17.50;29.60
23783;DHT22;12071;50.850;4.446;2022-07-18T04:11:10;17.50;56.10
23783;DHT22;12071;50.850;4.446;2022-07-18T04:13:36;17.70;1.00
23783;DHT22;12071;50.850;4.446;2022-07-18T04:16:02;17.80;1.00
23783;DHT22;12071;50.850;4.446;2022-07-18T04:18:27;17.80;1.00
23783;DHT22;12071;50.850;4.446;2022-07-18T04:20:53;17.80;1.00
23783;DHT22;12071;50.850;4.446;2022-07-18T04:23:18;17.50;1.00
23783;DHT22;12071;50.850;4.446;2022-07-18T04:25:44;17.30;67.70
23783;DHT22;12071;50.850;4.446;2022-07-18T04:28:12;17.10;99.90
23783;DHT22;12071;50.850;4.446;2022-07-18T04:30:39;17.40;99.90
23783;DHT22;12071;50.850;4.446;2022-07-18T04:33:07;17.70;49.80
23783;DHT22;12071;50.850;4.446;2022-07-18T04:35:33;17.80;1.00
23783;DHT22;12071;50.850;4.446;2022-07-18T04:38:02;17.70;1.00
23783;DHT22;12071;50.850;4.446;2022-07-18T04:40:27;17.50;27.20
23783;DHT22;12071;50.850;4.446;2022-07-18T04:42:53;17.30;92.80
23783;DHT22;12071;50.850;4.446;2022-07-18T04:45:19;17.30;99.90
23783;DHT22;12071;50.850;4.446;2022-07-18T04:47:51;17.30;99.90
23783;DHT22;12071;50.850;4.446;2022-07-18T04:50:17;17.30;99.90
23783;DHT22;12071;50.850;4.446;2022-07-18T04:52:44;17.30;99.90
23783;DHT22;12071;50.850;4.446;2022-07-18T04:55:11;17.40;99.90
23783;DHT22;12071;50.850;4.446;2022-07-18T04:57:38;17.60;99.90
23783;DHT22;12071;50.850;4.446;2022-07-18T05:00:06;17.70;77.20
23783;DHT22;12071;50.850;4.446;2022-07-18T05:02:32;17.70;55.40
23783;DHT22;12071;50.850;4.446;2022-07-18T05:04:58;17.70;59.10
23783;DHT22;12071;50.850;4.446;2022-07-18T05:07:23;17.90;54.30
23783;DHT22;12071;50.850;4.446;2022-07-18T05:09:49;17.90;27.80
23783;DHT22;12071;50.850;4.446;2022-07-18T05:12:15;18.10;13.60
23783;DHT22;12071;50.850;4.446;2022-07-18T05:14:40;18.10;1.00
23783;DHT22;12071;50.850;4.446;2022-07-18T05:17:06;18.20;5.90
23783;DHT22;12071;50.850;4.446;2022-07-18T05:19:31;18.20;21.20
23783;DHT22;12071;50.850;4.446;2022-07-18T05:21:57;18.30;16.60
23783;DHT22;12071;50.850;4.446;2022-07-18T05:24:22;18.30;11.90
23783;DHT22;12071;50.850;4.446;2022-07-18T05:26:48;18.20;1.00
23783;DHT22;12071;50.850;4.446;2022-07-18T05:29:14;18.40;1.00
23783;DHT22;12071;50.850;4.446;2022-07-18T05:31:40;18.40;1.00
23783;DHT22;12071;50.850;4.446;2022-07-18T05:34:07;18.30;99.90
23783;DHT22;12071;50.850;4.446;2022-07-18T05:36:33;18.40;99.90
23783;DHT22;12071;50.850;4.446;2022-07-18T05:38:58;18.50;99.90
23783;DHT22;12071;50.850;4.446;2022-07-18T05:41:24;18.80;97.50
23783;DHT22;12071;50.850;4.446;2022-07-18T05:43:49;18.80;1.00
23783;DHT22;12071;50.850;4.446;2022-07-18T05:46:15;18.80;1.00
23783;DHT22;12071;50.850;4.446;2022-07-18T05:48:40;19.20;99.90
23783;DHT22;12071;50.850;4.446;2022-07-18T05:51:07;19.80;99.90
23783;DHT22;12071;50.850;4.446;2022-07-18T05:53:33;20.10;99.90
23783;DHT22;12071;50.850;4.446;2022-07-18T05:55:58;20.10;99.90
23783;DHT22;12071;50.850;4.446;2022-07-18T05:58:24;20.00;99.90
23783;DHT22;12071;50.850;4.446;2022-07-18T06:00:49;19.80;99.90
23783;DHT22;12071;50.850;4.446;2022-07-18T06:03:15;20.00;1.00
23783;DHT22;12071;50.850;4.446;2022-07-18T06:05:41;20.10;1.00
23783;DHT22;12071;50.850;4.446;2022-07-18T06:08:06;20.20;99.90
23783;DHT22;12071;50.850;4.446;2022-07-18T06:10:32;20.50;1.00
23783;DHT22;12071;50.850;4.446;2022-07-18T06:12:58;20.40;1.00
23783;DHT22;12071;50.850;4.446;2022-07-18T06:15:24;20.40;1.00
23783;DHT22;12071;50.850;4.446;2022-07-18T06:17:50;20.60;99.90
23783;DHT22;12071;50.850;4.446;2022-07-18T06:20:16;20.50;99.90
23783;DHT22;12071;50.850;4.446;2022-07-18T06:22:42;20.50;99.90
23783;DHT22;12071;50.850;4.446;2022-07-18T06:25:08;20.60;99.90
23783;DHT22;12071;50.850;4.446;2022-07-18T06:27:34;20.90;99.90
23783;DHT22;12071;50.850;4.446;2022-07-18T06:30:01;20.90;1.00
23783;DHT22;12071;50.850;4.446;2022-07-18T06:32:30;21.20;99.90
23783;DHT22;12071;50.850;4.446;2022-07-18T06:34:55;21.50;1.00
23783;DHT22;12071;50.850;4.446;2022-07-18T06:37:21;21.70;99.90
23783;DHT22;12071;50.850;4.446;2022-07-18T06:39:46;21.60;99.90
23783;DHT22;12071;50.850;4.446;2022-07-18T06:42:12;21.70;93.00
23783;DHT22;12071;50.850;4.446;2022-07-18T06:44:38;21.70;99.90
23783;DHT22;12071;50.850;4.446;2022-07-18T06:47:03;21.80;1.00
23783;DHT22;12071;50.850;4.446;2022-07-18T06:49:29;22.00;99.90
23783;DHT22;12071;50.850;4.446;2022-07-18T06:51:54;22.10;99.90
23783;DHT22;12071;50.850;4.446;2022-07-18T06:54:20;22.30;99.90
23783;DHT22;12071;50.850;4.446;2022-07-18T06:56:51;22.40;1.00
23783;DHT22;12071;50.850;4.446;2022-07-18T06:59:17;22.50;1.00
23783;DHT22;12071;50.850;4.446;2022-07-18T07:01:42;22.70;99.90
23783;DHT22;12071;50.850;4.446;2022-07-18T07:04:08;23.00;99.90
23783;DHT22;12071;50.850;4.446;2022-07-18T07:06:34;23.20;1.00
23783;DHT22;12071;50.850;4.446;2022-07-18T07:09:02;23.50;1.00
23783;DHT22;12071;50.850;4.446;2022-07-18T07:11:27;23.70;99.90
23783;DHT22;12071;50.850;4.446;2022-07-18T07:13:53;23.60;99.90
23783;DHT22;12071;50.850;4.446;2022-07-18T07:16:18;23.60;99.90
23783;DHT22;12071;50.850;4.446;2022-07-18T07:18:44;23.90;99.90
23783;DHT22;12071;50.850;4.446;2022-07-18T07:21:10;23.70;99.90
23783;DHT22;12071;50.850;4.446;2022-07-18T07:23:35;23.90;99.90
23783;DHT22;12071;50.850;4.446;2022-07-18T07:26:01;23.90;99.90
23783;DHT22;12071;50.850;4.446;2022-07-18T07:28:26;24.10;99.90
23783;DHT22;12071;50.850;4.446;2022-07-18T07:30:52;24.30;31.80
23783;DHT22;12071;50.850;4.446;2022-07-18T07:33:18;24.40;53.10
23783;DHT22;12071;50.850;4.446;2022-07-18T07:35:43;24.50;87.30
23783;DHT22;12071;50.850;4.446;2022-07-18T07:38:09;24.40;14.50
23783;DHT22;12071;50.850;4.446;2022-07-18T07:40:35;24.40;27.00
23783;DHT22;12071;50.850;4.446;2022-07-18T07:43:10;24.70;1.00
23783;DHT22;12071;50.850;4.446;2022-07-18T07:45:37;24.90;1.00
23783;DHT22;12071;50.850;4.446;2022-07-18T07:48:03;25.00;1.00
23783;DHT22;12071;50.850;4.446;2022-07-18T07:50:29;25.00;1.00
23783;DHT22;12071;50.850;4.446;2022-07-18T07:52:55;25.10;1.00
23783;DHT22;12071;50.850;4.446;2022-07-18T07:55:21;25.20;99.90
23783;DHT22;12071;50.850;4.446;2022-07-18T07:57:47;25.10;99.90
23783;DHT22;12071;50.850;4.446;2022-07-18T08:00:13;25.40;99.90
23783;DHT22;12071;50.850;4.446;2022-07-18T08:02:50;25.40;99.90
23783;DHT22;12071;50.850;4.446;2022-07-18T08:05:16;25.30;99.90
23783;DHT22;12071;50.850;4.446;2022-07-18T08:07:41;25.30;99.90
23783;DHT22;12071;50.850;4.446;2022-07-18T08:10:07;25.60;99.90
23783;DHT22;12071;50.850;4.446;2022-07-18T08:12:33;25.70;99.90
23783;DHT22;12071;50.850;4.446;2022-07-18T08:14:59;26.00;99.90
23783;DHT22;12071;50.850;4.446;2022-07-18T08:17:24;25.90;99.90
23783;DHT22;12071;50.850;4.446;2022-07-18T08:19:50;25.90;99.90
23783;DHT22;12071;50.850;4.446;2022-07-18T08:22:15;26.00;99.90
23783;DHT22;12071;50.850;4.446;2022-07-18T08:24:43;26.00;99.90
23783;DHT22;12071;50.850;4.446;2022-07-18T08:27:08;26.20;99.90
23783;DHT22;12071;50.850;4.446;2022-07-18T08:29:35;26.20;99.90
23783;DHT22;12071;50.850;4.446;2022-07-18T08:32:00;26.30;99.90
23783;DHT22;12071;50.850;4.446;2022-07-18T08:34:26;26.20;99.90
23783;DHT22;12071;50.850;4.446;2022-07-18T08:36:52;26.60;99.90
23783;DHT22;12071;50.850;4.446;2022-07-18T08:39:17;26.70;99.90
23783;DHT22;12071;50.850;4.446;2022-07-18T08:41:44;26.90;99.90
23783;DHT22;12071;50.850;4.446;2022-07-18T08:44:13;27.00;60.20
23783;DHT22;12071;50.850;4.446;2022-07-18T08:46:40;27.10;29.40
23783;DHT22;12071;50.850;4.446;2022-07-18T08:49:09;27.10;28.80
23783;DHT22;12071;50.850;4.446;2022-07-18T08:51:37;27.40;11.00
23783;DHT22;12071;50.850;4.446;2022-07-18T08:54:03;27.50;1.00
23783;DHT22;12071;50.850;4.446;2022-07-18T08:56:28;27.50;1.00
23783;DHT22;12071;50.850;4.446;2022-07-18T08:58:54;27.60;1.00
23783;DHT22;12071;50.850;4.446;2022-07-18T09:01:20;27.70;1.00
23783;DHT22;12071;50.850;4.446;2022-07-18T09:03:46;27.50;1.00
23783;DHT22;12071;50.850;4.446;2022-07-18T09:06:42;27.60;1.00
23783;DHT22;12071;50.850;4.446;2022-07-18T09:09:11;27.50;1.00
23783;DHT22;12071;50.850;4.446;2022-07-18T09:11:37;27.70;1.00
23783;DHT22;12071;50.850;4.446;2022-07-18T09:14:02;27.70;1.00
23783;DHT22;12071;50.850;4.446;2022-07-18T09:16:28;28.00;1.00
23783;DHT22;12071;50.850;4.446;2022-07-18T09:18:53;28.30;1.00
23783;DHT22;12071;50.850;4.446;2022-07-18T09:21:22;28.60;1.00
23783;DHT22;12071;50.850;4.446;2022-07-18T09:23:52;28.30;1.00
23783;DHT22;12071;50.850;4.446;2022-07-18T09:26:38;28.20;1.00
23783;DHT22;12071;50.850;4.446;2022-07-18T09:29:04;28.40;1.00
23783;DHT22;12071;50.850;4.446;2022-07-18T09:31:29;28.60;1.00
23783;DHT22;12071;50.850;4.446;2022-07-18T09:34:00;28.70;1.00
23783;DHT22;12071;50.850;4.446;2022-07-18T09:36:27;28.90;1.00
23783;DHT22;12071;50.850;4.446;2022-07-18T09:38:54;29.10;1.00
23783;DHT22;12071;50.850;4.446;2022-07-18T09:41:26;29.00;1.00
23783;DHT22;12071;50.850;4.446;2022-07-18T09:43:53;28.80;1.00
23783;DHT22;12071;50.850;4.446;2022-07-18T09:46:19;28.60;1.00
23783;DHT22;12071;50.850;4.446;2022-07-18T09:48:44;29.10;1.00
23783;DHT22;12071;50.850;4.446;2022-07-18T09:51:10;28.90;1.00
23783;DHT22;12071;50.850;4.446;2022-07-18T09:53:42;29.00;1.00
23783;DHT22;12071;50.850;4.446;2022-07-18T09:56:13;29.10;1.00
23783;DHT22;12071;50.850;4.446;2022-07-18T09:58:41;29.20;1.00
23783;DHT22;12071;50.850;4.446;2022-07-18T10:01:09;29.50;1.00
23783;DHT22;12071;50.850;4.446;2022-07-18T10:03:36;29.80;1.00
23783;DHT22;12071;50.850;4.446;2022-07-18T10:06:02;29.60;1.00
23783;DHT22;12071;50.850;4.446;2022-07-18T10:08:30;29.70;1.00
23783;DHT22;12071;50.850;4.446;2022-07-18T10:10:57;29.80;1.00
23783;DHT22;12071;50.850;4.446;2022-07-18T10:13:25;29.70;1.00
23783;DHT22;12071;50.850;4.446;2022-07-18T10:15:51;29.70;1.00
23783;DHT22;12071;50.850;4.446;2022-07-18T10:18:20;29.80;1.00
23783;DHT22;12071;50.850;4.446;2022-07-18T10:21:08;30.00;1.00
23783;DHT22;12071;50.850;4.446;2022-07-18T10:26:20;30.40;1.00
23783;DHT22;12071;50.850;4.446;2022-07-18T10:31:26;30.70;1.00
23783;DHT22;12071;50.850;4.446;2022-07-18T10:33:55;30.80;1.00
23783;DHT22;12071;50.850;4.446;2022-07-18T10:36:35;31.00;1.00
23783;DHT22;12071;50.850;4.446;2022-07-18T10:57:39;31.80;1.00
23783;DHT22;12071;50.850;4.446;2022-07-18T11:00:09;31.60;1.00
23783;DHT22;12071;50.850;4.446;2022-07-18T11:02:42;31.30;1.00
23783;DHT22;12071;50.850;4.446;2022-07-18T11:19:14;32.30;1.00
23783;DHT22;12071;50.850;4.446;2022-07-18T11:21:26;32.60;1.00
23783;DHT22;12071;50.850;4.446;2022-07-18T11:24:03;32.10;1.00
23783;DHT22;12071;50.850;4.446;2022-07-18T11:26:30;32.00;1.00
23783;DHT22;12071;50.850;4.446;2022-07-18T11:29:04;31.70;1.00
23783;DHT22;12071;50.850;4.446;2022-07-18T11:31:32;31.70;1.00
23783;DHT22;12071;50.850;4.446;2022-07-18T11:34:07;31.50;1.00
23783;DHT22;12071;50.850;4.446;2022-07-18T11:36:33;31.70;1.00
23783;DHT22;12071;50.850;4.446;2022-07-18T11:39:01;31.60;1.00
23783;DHT22;12071;50.850;4.446;2022-07-18T11:41:27;31.50;1.00
23783;DHT22;12071;50.850;4.446;2022-07-18T11:43:54;31.60;1.00
23783;DHT22;12071;50.850;4.446;2022-07-18T11:46:24;32.00;1.00
23783;DHT22;12071;50.850;4.446;2022-07-18T11:49:01;32.10;1.00
23783;DHT22;12071;50.850;4.446;2022-07-18T11:51:35;32.50;1.00
23783;DHT22;12071;50.850;4.446;2022-07-18T11:54:02;32.80;1.00
23783;DHT22;12071;50.850;4.446;2022-07-18T11:56:29;33.00;1.00
23783;DHT22;12071;50.850;4.446;2022-07-18T11:58:55;33.30;1.00
23783;DHT22;12071;50.850;4.446;2022-07-18T12:01:30;33.80;1.00
23783;DHT22;12071;50.850;4.446;2022-07-18T12:03:56;33.50;1.00
23783;DHT22;12071;50.850;4.446;2022-07-18T12:06:23;32.90;1.00
23783;DHT22;12071;50.850;4.446;2022-07-18T12:08:56;32.70;1.00
23783;DHT22;12071;50.850;4.446;2022-07-18T12:16:46;33.60;1.00
23783;DHT22;12071;50.850;4.446;2022-07-18T12:19:20;34.00;1.00
23783;DHT22;12071;50.850;4.446;2022-07-18T12:21:50;34.20;1.00
23783;DHT22;12071;50.850;4.446;2022-07-18T12:24:38;34.30;1.00
23783;DHT22;12071;50.850;4.446;2022-07-18T12:30:40;34.00;1.00
23783;DHT22;12071;50.850;4.446;2022-07-18T12:32:47;34.30;1.00
23783;DHT22;12071;50.850;4.446;2022-07-18T12:35:21;34.40;1.00
23783;DHT22;12071;50.850;4.446;2022-07-18T12:37:58;34.40;1.00
23783;DHT22;12071;50.850;4.446;2022-07-18T12:40:27;34.30;1.00
23783;DHT22;12071;50.850;4.446;2022-07-18T12:43:05;34.30;1.00
23783;DHT22;12071;50.850;4.446;2022-07-18T12:45:32;34.70;1.00
23783;DHT22;12071;50.850;4.446;2022-07-18T12:47:57;34.70;1.00
23783;DHT22;12071;50.850;4.446;2022-07-18T12:50:23;34.80;1.00
23783;DHT22;12071;50.850;4.446;2022-07-18T12:52:48;34.80;1.00
23783;DHT22;12071;50.850;4.446;2022-07-18T12:55:14;35.00;1.00
23783;DHT22;12071;50.850;4.446;2022-07-18T12:57:41;35.00;1.00
23783;DHT22;12071;50.850;4.446;2022-07-18T13:00:07;34.90;1.00
23783;DHT22;12071;50.850;4.446;2022-07-18T13:02:32;34.70;1.00
23783;DHT22;12071;50.850;4.446;2022-07-18T13:04:58;34.80;1.00
23783;DHT22;12071;50.850;4.446;2022-07-18T13:07:24;34.20;1.00
23783;DHT22;12071;50.850;4.446;2022-07-18T13:09:49;34.50;1.00
23783;DHT22;12071;50.850;4.446;2022-07-18T13:12:15;35.00;1.00
23783;DHT22;12071;50.850;4.446;2022-07-18T13:14:41;35.40;1.00
23783;DHT22;12071;50.850;4.446;2022-07-18T13:17:06;35.10;1.00
23783;DHT22;12071;50.850;4.446;2022-07-18T13:19:32;35.30;1.00
23783;DHT22;12071;50.850;4.446;2022-07-18T13:21:58;35.40;1.00
23783;DHT22;12071;50.850;4.446;2022-07-18T13:24:24;35.40;1.00
23783;DHT22;12071;50.850;4.446;2022-07-18T13:26:50;36.00;1.00
23783;DHT22;12071;50.850;4.446;2022-07-18T13:29:15;37.20;1.00
23783;DHT22;12071;50.850;4.446;2022-07-18T13:31:41;38.70;1.00
23783;DHT22;12071;50.850;4.446;2022-07-18T13:34:07;39.90;1.00
23783;DHT22;12071;50.850;4.446;2022-07-18T13:36:32;41.00;1.00
23783;DHT22;12071;50.850;4.446;2022-07-18T13:38:59;41.50;1.00
23783;DHT22;12071;50.850;4.446;2022-07-18T13:41:27;40.90;1.00
23783;DHT22;12071;50.850;4.446;2022-07-18T13:43:53;42.00;1.00
23783;DHT22;12071;50.850;4.446;2022-07-18T13:46:18;42.80;1.00
23783;DHT22;12071;50.850;4.446;2022-07-18T13:48:44;43.50;1.00
23783;DHT22;12071;50.850;4.446;2022-07-18T13:51:10;42.40;1.00
23783;DHT22;12071;50.850;4.446;2022-07-18T13:53:35;41.90;1.00
23783;DHT22;12071;50.850;4.446;2022-07-18T13:56:01;41.80;1.00
23783;DHT22;12071;50.850;4.446;2022-07-18T13:58:27;42.10;1.00
23783;DHT22;12071;50.850;4.446;2022-07-18T14:00:52;42.30;1.00
23783;DHT22;12071;50.850;4.446;2022-07-18T14:03:18;41.60;1.00
23783;DHT22;12071;50.850;4.446;2022-07-18T14:05:43;42.30;1.00
23783;DHT22;12071;50.850;4.446;2022-07-18T14:08:09;43.10;1.00
23783;DHT22;12071;50.850;4.446;2022-07-18T14:10:35;44.50;1.00
23783;DHT22;12071;50.850;4.446;2022-07-18T14:13:01;45.30;1.00
23783;DHT22;12071;50.850;4.446;2022-07-18T14:15:27;46.20;1.00
23783;DHT22;12071;50.850;4.446;2022-07-18T14:17:53;46.30;1.00
23783;DHT22;12071;50.850;4.446;2022-07-18T14:20:19;45.60;1.00
23783;DHT22;12071;50.850;4.446;2022-07-18T14:22:46;45.30;1.00
23783;DHT22;12071;50.850;4.446;2022-07-18T14:25:14;45.00;1.00
23783;DHT22;12071;50.850;4.446;2022-07-18T14:27:40;44.90;1.00
23783;DHT22;12071;50.850;4.446;2022-07-18T14:30:08;45.20;1.00
23783;DHT22;12071;50.850;4.446;2022-07-18T14:32:34;45.00;1.00
23783;DHT22;12071;50.850;4.446;2022-07-18T14:35:00;44.90;1.00
23783;DHT22;12071;50.850;4.446;2022-07-18T14:37:25;44.80;1.00
23783;DHT22;12071;50.850;4.446;2022-07-18T14:39:51;45.40;1.00
23783;DHT22;12071;50.850;4.446;2022-07-18T14:42:17;45.10;1.00
23783;DHT22;12071;50.850;4.446;2022-07-18T14:44:42;45.40;1.00
23783;DHT22;12071;50.850;4.446;2022-07-18T14:47:08;44.80;1.00
23783;DHT22;12071;50.850;4.446;2022-07-18T14:49:34;45.50;1.00
23783;DHT22;12071;50.850;4.446;2022-07-18T14:51:59;46.00;99.90
23783;DHT22;12071;50.850;4.446;2022-07-18T14:54:28;47.00;1.00
23783;DHT22;12071;50.850;4.446;2022-07-18T14:56:54;47.10;1.00
23783;DHT22;12071;50.850;4.446;2022-07-18T14:59:20;47.10;1.00
23783;DHT22;12071;50.850;4.446;2022-07-18T15:01:46;47.50;1.00
23783;DHT22;12071;50.850;4.446;2022-07-18T15:04:12;47.20;1.00
23783;DHT22;12071;50.850;4.446;2022-07-18T15:06:38;47.60;1.00
23783;DHT22;12071;50.850;4.446;2022-07-18T15:09:05;47.60;99.90
23783;DHT22;12071;50.850;4.446;2022-07-18T15:11:32;48.30;1.00
23783;DHT22;12071;50.850;4.446;2022-07-18T15:13:57;48.50;1.00
23783;DHT22;12071;50.850;4.446;2022-07-18T15:16:23;48.50;1.00
23783;DHT22;12071;50.850;4.446;2022-07-18T15:18:49;48.00;99.90
23783;DHT22;12071;50.850;4.446;2022-07-18T15:21:16;48.60;1.00
23783;DHT22;12071;50.850;4.446;2022-07-18T15:23:41;48.30;1.00
23783;DHT22;12071;50.850;4.446;2022-07-18T15:26:07;48.10;1.00
23783;DHT22;12071;50.850;4.446;2022-07-18T15:28:33;47.90;1.00
23783;DHT22;12071;50.850;4.446;2022-07-18T15:30:58;47.50;1.00
23783;DHT22;12071;50.850;4.446;2022-07-18T15:33:24;47.20;1.00
23783;DHT22;12071;50.850;4.446;2022-07-18T15:35:50;46.80;99.90
23783;DHT22;12071;50.850;4.446;2022-07-18T15:38:16;46.70;99.90
23783;DHT22;12071;50.850;4.446;2022-07-18T15:40:41;46.30;99.90
23783;DHT22;12071;50.850;4.446;2022-07-18T15:43:08;46.90;99.90
23783;DHT22;12071;50.850;4.446;2022-07-18T15:45:33;47.70;1.00
23783;DHT22;12071;50.850;4.446;2022-07-18T15:47:59;47.90;1.00
23783;DHT22;12071;50.850;4.446;2022-07-18T15:50:25;47.80;1.00
23783;DHT22;12071;50.850;4.446;2022-07-18T15:52:50;46.70;1.00
23783;DHT22;12071;50.850;4.446;2022-07-18T15:55:16;45.80;99.90
23783;DHT22;12071;50.850;4.446;2022-07-18T15:57:42;45.50;1.00
23783;DHT22;12071;50.850;4.446;2022-07-18T16:00:08;46.10;1.00
23783;DHT22;12071;50.850;4.446;2022-07-18T16:02:34;46.00;1.00
23783;DHT22;12071;50.850;4.446;2022-07-18T16:05:01;46.40;99.90
23783;DHT22;12071;50.850;4.446;2022-07-18T16:07:27;46.40;99.90
23783;DHT22;12071;50.850;4.446;2022-07-18T16:09:53;45.90;99.90
23783;DHT22;12071;50.850;4.446;2022-07-18T16:12:21;45.90;1.00
23783;DHT22;12071;50.850;4.446;2022-07-18T16:14:51;46.00;1.00
23783;DHT22;12071;50.850;4.446;2022-07-18T16:17:18;45.80;99.90
23783;DHT22;12071;50.850;4.446;2022-07-18T16:19:44;45.60;99.90
23783;DHT22;12071;50.850;4.446;2022-07-18T16:22:09;44.80;99.90
23783;DHT22;12071;50.850;4.446;2022-07-18T16:24:35;45.50;99.90